ACA290 SVMI-CYYZ
Flight info
| Callsign | ACA290 |
|---|---|
| Flight time | N/A |
| Altitude | 32000 |
| Route | VADOR2 PULPO UA554 KABON UL216 POKAK UT20 CDO UL212 KODIX UT20 PTA UL339 SEKAR L450 TAANA A554 GTK R763 JEFFO L450 FOLLE G504 COUKY/N0483F330 L450 IORIO G504 LETON/M081F340 L451 JAINS/N0470F340 AR12 DIZNY/N0471F350 AR3 GARIC Q129 PYTON/N0468F360 DCT OXMAN LINNG3 |
| Aircraft | B738/M-SDGIJ1LRWY/SB1 |
Departure
| Time | 2026-05-03 23:12 |
|---|---|
| Airport | Maiquetía Simón Bolívar International Airport (SVMI) |
Arrival
| Time | N/A |
|---|---|
| Airport | Toronto Pearson International Airport (CYYZ) |
| Time | Latitude | Longitude | Altitude | Speed | Heading |
|---|---|---|---|---|---|
| 2026-05-03 23:09 | 10.60377 | -67.01230 | 293 ft | 0 kts | 88° |
| 2026-05-03 23:12 | 10.60385 | -67.00934 | 299 ft | 94 kts | 88° |
| 2026-05-03 23:12 | 10.60404 | -67.00040 | 341 ft | 174 kts | 89° |
| 2026-05-03 23:12 | 10.60502 | -66.98920 | 1271 ft | 183 kts | 73° |
| 2026-05-03 23:13 | 10.60943 | -66.97729 | 2476 ft | 192 kts | 69° |
| 2026-05-03 23:13 | 10.61644 | -66.96658 | 3271 ft | 208 kts | 39° |
| 2026-05-03 23:13 | 10.62952 | -66.96135 | 4002 ft | 229 kts | 12° |
| 2026-05-03 23:13 | 10.64559 | -66.95908 | 4803 ft | 246 kts | 12° |
| 2026-05-03 23:14 | 10.66280 | -66.95519 | 5590 ft | 263 kts | 17° |
| 2026-05-03 23:14 | 10.68083 | -66.94959 | 6416 ft | 279 kts | 20° |
| 2026-05-03 23:14 | 10.69948 | -66.94330 | 7466 ft | 284 kts | 20° |
| 2026-05-03 23:14 | 10.71804 | -66.93701 | 8515 ft | 288 kts | 20° |
| 2026-05-03 23:15 | 10.73708 | -66.93067 | 9576 ft | 291 kts | 20° |
| 2026-05-03 23:15 | 10.75630 | -66.92433 | 10515 ft | 298 kts | 20° |
| 2026-05-03 23:15 | 10.77659 | -66.91767 | 11230 ft | 314 kts | 20° |
| 2026-05-03 23:15 | 10.79803 | -66.91065 | 11884 ft | 329 kts | 20° |
| 2026-05-03 23:16 | 10.82082 | -66.90490 | 12476 ft | 347 kts | 11° |
| 2026-05-03 23:16 | 10.84558 | -66.90524 | 13022 ft | 368 kts | 352° |
| 2026-05-03 23:16 | 10.87036 | -66.91438 | 13527 ft | 390 kts | 333° |
| 2026-05-03 23:16 | 10.89345 | -66.92930 | 14014 ft | 405 kts | 328° |
| 2026-05-03 23:17 | 10.91727 | -66.94607 | 14431 ft | 421 kts | 326° |
| 2026-05-03 23:17 | 10.94150 | -66.96340 | 14956 ft | 432 kts | 326° |
| 2026-05-03 23:17 | 10.96644 | -66.98117 | 15606 ft | 439 kts | 327° |
| 2026-05-03 23:17 | 10.99180 | -66.99908 | 16319 ft | 444 kts | 327° |
| 2026-05-03 23:18 | 11.01706 | -67.01677 | 17016 ft | 448 kts | 327° |
| 2026-05-03 23:18 | 11.04307 | -67.03487 | 17666 ft | 453 kts | 327° |
| 2026-05-03 23:18 | 11.06914 | -67.05296 | 18434 ft | 454 kts | 327° |
| 2026-05-03 23:18 | 11.09516 | -67.07097 | 19206 ft | 455 kts | 327° |
| 2026-05-03 23:19 | 11.12146 | -67.08916 | 19982 ft | 456 kts | 326° |
| 2026-05-03 23:19 | 11.14754 | -67.10720 | 20681 ft | 458 kts | 326° |
| 2026-05-03 23:19 | 11.17415 | -67.12561 | 21398 ft | 459 kts | 326° |
| 2026-05-03 23:19 | 11.20057 | -67.14389 | 22047 ft | 462 kts | 326° |
| 2026-05-03 23:20 | 11.22684 | -67.16209 | 22724 ft | 463 kts | 326° |
| 2026-05-03 23:20 | 11.25384 | -67.18078 | 23289 ft | 467 kts | 326° |
| 2026-05-03 23:20 | 11.28081 | -67.19897 | 23824 ft | 472 kts | 327° |
| 2026-05-03 23:20 | 11.30945 | -67.21605 | 24370 ft | 476 kts | 332° |
| 2026-05-03 23:21 | 11.33953 | -67.22992 | 24922 ft | 480 kts | 337° |
| 2026-05-03 23:21 | 11.37115 | -67.24177 | 25415 ft | 484 kts | 340° |
| 2026-05-03 23:21 | 11.40350 | -67.25236 | 25886 ft | 489 kts | 342° |
| 2026-05-03 23:21 | 11.43636 | -67.26235 | 26512 ft | 489 kts | 342° |
| 2026-05-03 23:22 | 11.49851 | -67.28063 | 28022 ft | 482 kts | 342° |
| 2026-05-03 23:22 | 11.53078 | -67.29019 | 28685 ft | 481 kts | 342° |
| 2026-05-03 23:22 | 11.56258 | -67.29973 | 29352 ft | 479 kts | 341° |
| 2026-05-03 23:23 | 11.59471 | -67.30949 | 30039 ft | 477 kts | 341° |
| 2026-05-03 23:23 | 11.62626 | -67.31928 | 30778 ft | 473 kts | 341° |
| 2026-05-03 23:23 | 11.65761 | -67.32931 | 31459 ft | 470 kts | 340° |
| 2026-05-03 23:23 | 11.68889 | -67.33955 | 31890 ft | 471 kts | 340° |
| 2026-05-03 23:24 | 11.75129 | -67.36018 | 31927 ft | 468 kts | 340° |
| 2026-05-03 23:24 | 11.81295 | -67.38062 | 31926 ft | 469 kts | 340° |
| 2026-05-03 23:25 | 11.87532 | -67.40126 | 31927 ft | 469 kts | 340° |
| 2026-05-03 23:25 | 11.93728 | -67.42172 | 31926 ft | 469 kts | 340° |
| 2026-05-03 23:26 | 11.99957 | -67.44227 | 31925 ft | 469 kts | 340° |
| 2026-05-03 23:26 | 12.06165 | -67.46275 | 31927 ft | 467 kts | 340° |
| 2026-05-03 23:27 | 12.12354 | -67.48318 | 31930 ft | 466 kts | 340° |
| 2026-05-03 23:27 | 12.18547 | -67.50364 | 31931 ft | 466 kts | 340° |
| 2026-05-03 23:28 | 12.24742 | -67.52412 | 31933 ft | 467 kts | 340° |
| 2026-05-03 23:28 | 12.30922 | -67.54456 | 31934 ft | 465 kts | 340° |
| 2026-05-03 23:29 | 12.37063 | -67.56486 | 31935 ft | 466 kts | 340° |
| 2026-05-03 23:29 | 12.43255 | -67.58536 | 31934 ft | 467 kts | 340° |
| 2026-05-03 23:30 | 12.49412 | -67.60574 | 31937 ft | 466 kts | 340° |
| 2026-05-03 23:30 | 12.55594 | -67.62621 | 31940 ft | 464 kts | 340° |
| 2026-05-03 23:31 | 12.61746 | -67.64661 | 31938 ft | 465 kts | 340° |
| 2026-05-03 23:31 | 12.67927 | -67.66711 | 31937 ft | 463 kts | 340° |
| 2026-05-03 23:32 | 12.74075 | -67.68750 | 31943 ft | 464 kts | 340° |
| 2026-05-03 23:32 | 12.80226 | -67.70815 | 31941 ft | 463 kts | 339° |
| 2026-05-03 23:33 | 12.86331 | -67.72899 | 31943 ft | 464 kts | 339° |
| 2026-05-03 23:33 | 12.92466 | -67.75000 | 31944 ft | 463 kts | 339° |
| 2026-05-03 23:34 | 12.98559 | -67.77084 | 31938 ft | 462 kts | 340° |
| 2026-05-03 23:34 | 13.04676 | -67.79174 | 31940 ft | 462 kts | 340° |
| 2026-05-03 23:35 | 13.10777 | -67.81264 | 31946 ft | 464 kts | 340° |
| 2026-05-03 23:35 | 13.16910 | -67.83382 | 31952 ft | 464 kts | 339° |
| 2026-05-03 23:36 | 13.23031 | -67.85502 | 31952 ft | 462 kts | 339° |
| 2026-05-03 23:36 | 13.29175 | -67.87630 | 31955 ft | 464 kts | 339° |
| 2026-05-03 23:37 | 13.35259 | -67.89728 | 31954 ft | 465 kts | 340° |
| 2026-05-03 23:37 | 13.41411 | -67.91843 | 31956 ft | 464 kts | 340° |
| 2026-05-03 23:38 | 13.47563 | -67.93956 | 31956 ft | 465 kts | 340° |
| 2026-05-03 23:38 | 13.53711 | -67.96070 | 31955 ft | 465 kts | 340° |
| 2026-05-03 23:39 | 13.59882 | -67.98195 | 31961 ft | 467 kts | 340° |
| 2026-05-03 23:39 | 13.66045 | -68.00320 | 31960 ft | 467 kts | 341° |
| 2026-05-03 23:40 | 13.72250 | -68.02457 | 31960 ft | 469 kts | 340° |
| 2026-05-03 23:40 | 13.78420 | -68.04585 | 31964 ft | 471 kts | 340° |
| 2026-05-03 23:41 | 13.84660 | -68.06737 | 31964 ft | 469 kts | 341° |
| 2026-05-03 23:41 | 13.90865 | -68.08879 | 31966 ft | 472 kts | 341° |
| 2026-05-03 23:42 | 13.97095 | -68.11031 | 31966 ft | 469 kts | 340° |
| 2026-05-03 23:42 | 14.03276 | -68.13168 | 31967 ft | 470 kts | 341° |
| 2026-05-03 23:43 | 14.09499 | -68.15319 | 31967 ft | 470 kts | 341° |
| 2026-05-03 23:43 | 14.15707 | -68.17467 | 31967 ft | 472 kts | 341° |
| 2026-05-03 23:44 | 14.22028 | -68.19450 | 31969 ft | 473 kts | 345° |
| 2026-05-03 23:44 | 14.28466 | -68.20882 | 31968 ft | 473 kts | 348° |
| 2026-05-03 23:45 | 14.34929 | -68.22148 | 31968 ft | 473 kts | 348° |
| 2026-05-03 23:45 | 14.41382 | -68.23415 | 31971 ft | 472 kts | 348° |
| 2026-05-03 23:46 | 14.47859 | -68.24720 | 31973 ft | 473 kts | 348° |
| 2026-05-03 23:46 | 14.54323 | -68.26048 | 31971 ft | 473 kts | 348° |
| 2026-05-03 23:47 | 14.60806 | -68.27393 | 31970 ft | 473 kts | 348° |
| 2026-05-03 23:47 | 14.67223 | -68.28732 | 31966 ft | 473 kts | 347° |
| 2026-05-03 23:48 | 14.73729 | -68.30093 | 31965 ft | 473 kts | 348° |
| 2026-05-03 23:48 | 14.80195 | -68.31440 | 31966 ft | 474 kts | 347° |
| 2026-05-03 23:49 | 14.86648 | -68.32777 | 31964 ft | 474 kts | 348° |
| 2026-05-03 23:49 | 14.93111 | -68.34115 | 31963 ft | 474 kts | 348° |
| 2026-05-03 23:50 | 14.99599 | -68.35461 | 31965 ft | 475 kts | 348° |
| 2026-05-03 23:50 | 15.06115 | -68.36813 | 31965 ft | 475 kts | 348° |
| 2026-05-03 23:51 | 15.12569 | -68.38153 | 31968 ft | 473 kts | 348° |
| 2026-05-03 23:51 | 15.19057 | -68.39501 | 31968 ft | 473 kts | 348° |
| 2026-05-03 23:52 | 15.25510 | -68.40848 | 31970 ft | 475 kts | 348° |
| 2026-05-03 23:52 | 15.32002 | -68.42222 | 31969 ft | 475 kts | 347° |
| 2026-05-03 23:53 | 15.38489 | -68.43597 | 31968 ft | 474 kts | 347° |
| 2026-05-03 23:53 | 15.44946 | -68.44965 | 31968 ft | 474 kts | 348° |
| 2026-05-03 23:54 | 15.51450 | -68.46343 | 31971 ft | 474 kts | 348° |
| 2026-05-03 23:54 | 15.57922 | -68.47714 | 31973 ft | 474 kts | 348° |
| 2026-05-03 23:55 | 15.64382 | -68.49084 | 31980 ft | 474 kts | 348° |
| 2026-05-03 23:55 | 15.70830 | -68.50451 | 31983 ft | 473 kts | 347° |
| 2026-05-03 23:56 | 15.77303 | -68.51825 | 31991 ft | 473 kts | 348° |
| 2026-05-03 23:56 | 15.83785 | -68.53201 | 31992 ft | 473 kts | 347° |
| 2026-05-03 23:57 | 15.90246 | -68.54575 | 31990 ft | 473 kts | 347° |
| 2026-05-03 23:57 | 15.96681 | -68.55959 | 31995 ft | 473 kts | 346° |
| 2026-05-03 23:58 | 16.02959 | -68.57916 | 31995 ft | 472 kts | 339° |
| 2026-05-03 23:58 | 16.09072 | -68.60499 | 31998 ft | 471 kts | 336° |
| 2026-05-03 23:59 | 16.15076 | -68.63236 | 31999 ft | 472 kts | 335° |
| 2026-05-03 23:59 | 16.21088 | -68.65990 | 31998 ft | 472 kts | 335° |
| 2026-05-04 00:00 | 16.27106 | -68.68720 | 31998 ft | 472 kts | 336° |
| 2026-05-04 00:00 | 16.33143 | -68.71437 | 32003 ft | 471 kts | 336° |
| 2026-05-04 00:01 | 16.39184 | -68.74148 | 32004 ft | 472 kts | 336° |
| 2026-05-04 00:01 | 16.45229 | -68.76858 | 32002 ft | 472 kts | 336° |
| 2026-05-04 00:02 | 16.51266 | -68.79565 | 32003 ft | 472 kts | 336° |
| 2026-05-04 00:02 | 16.57293 | -68.82269 | 32006 ft | 473 kts | 335° |
| 2026-05-04 00:03 | 16.63374 | -68.84999 | 32004 ft | 473 kts | 335° |
| 2026-05-04 00:03 | 16.69409 | -68.87711 | 32008 ft | 473 kts | 335° |
| 2026-05-04 00:04 | 16.75485 | -68.90443 | 32009 ft | 474 kts | 335° |
| 2026-05-04 00:04 | 16.81551 | -68.93172 | 32008 ft | 475 kts | 335° |
| 2026-05-04 00:05 | 16.87611 | -68.95900 | 32008 ft | 475 kts | 335° |
| 2026-05-04 00:05 | 16.93681 | -68.98634 | 32007 ft | 475 kts | 335° |
| 2026-05-04 00:06 | 16.99736 | -69.01366 | 32011 ft | 475 kts | 335° |
| 2026-05-04 00:06 | 17.05816 | -69.04109 | 32009 ft | 474 kts | 335° |
| 2026-05-04 00:07 | 17.11863 | -69.06841 | 32009 ft | 475 kts | 335° |
| 2026-05-04 00:07 | 17.17921 | -69.09579 | 32009 ft | 474 kts | 335° |
| 2026-05-04 00:08 | 17.23984 | -69.12320 | 32009 ft | 473 kts | 336° |
| 2026-05-04 00:08 | 17.30077 | -69.15076 | 32006 ft | 474 kts | 335° |
| 2026-05-04 00:09 | 17.36089 | -69.17799 | 32009 ft | 472 kts | 335° |
| 2026-05-04 00:09 | 17.42153 | -69.20548 | 32015 ft | 472 kts | 335° |
| 2026-05-04 00:10 | 17.48163 | -69.23274 | 32016 ft | 472 kts | 336° |
| 2026-05-04 00:10 | 17.54211 | -69.26018 | 32015 ft | 473 kts | 335° |
| 2026-05-04 00:11 | 17.60243 | -69.28758 | 32014 ft | 473 kts | 335° |
| 2026-05-04 00:11 | 17.66275 | -69.31498 | 32018 ft | 472 kts | 335° |
| 2026-05-04 00:12 | 17.72313 | -69.34243 | 32012 ft | 472 kts | 335° |
| 2026-05-04 00:12 | 17.78318 | -69.36972 | 32020 ft | 470 kts | 335° |
| 2026-05-04 00:13 | 17.84345 | -69.39713 | 32013 ft | 471 kts | 336° |
| 2026-05-04 00:13 | 17.90355 | -69.42450 | 32022 ft | 472 kts | 336° |
| 2026-05-04 00:14 | 17.96375 | -69.45194 | 32017 ft | 471 kts | 336° |
| 2026-05-04 00:14 | 18.02411 | -69.47947 | 32020 ft | 472 kts | 335° |
| 2026-05-04 00:15 | 18.08449 | -69.50703 | 32018 ft | 472 kts | 336° |
| 2026-05-04 00:15 | 18.14626 | -69.53524 | 32019 ft | 471 kts | 336° |
| 2026-05-04 00:16 | 18.20645 | -69.56274 | 32018 ft | 471 kts | 336° |
| 2026-05-04 00:16 | 18.26703 | -69.59045 | 32020 ft | 472 kts | 335° |
| 2026-05-04 00:17 | 18.32760 | -69.61818 | 32021 ft | 472 kts | 336° |
| 2026-05-04 00:17 | 18.38787 | -69.64578 | 32021 ft | 472 kts | 336° |
| 2026-05-04 00:18 | 18.44688 | -69.67528 | 32023 ft | 470 kts | 330° |
| 2026-05-04 00:18 | 18.50291 | -69.71081 | 32023 ft | 469 kts | 327° |
| 2026-05-04 00:19 | 18.55773 | -69.74841 | 32025 ft | 470 kts | 326° |
| 2026-05-04 00:19 | 18.61225 | -69.78606 | 32027 ft | 471 kts | 326° |
| 2026-05-04 00:20 | 18.66724 | -69.82372 | 32028 ft | 470 kts | 326° |
| 2026-05-04 00:20 | 18.72231 | -69.86114 | 32030 ft | 470 kts | 326° |
| 2026-05-04 00:21 | 18.77718 | -69.89829 | 32032 ft | 470 kts | 326° |
| 2026-05-04 00:21 | 18.83218 | -69.93552 | 32034 ft | 470 kts | 326° |
| 2026-05-04 00:22 | 18.88750 | -69.97296 | 32035 ft | 470 kts | 326° |
| 2026-05-04 00:22 | 18.94224 | -70.01006 | 32036 ft | 469 kts | 326° |
| 2026-05-04 00:23 | 18.99740 | -70.04745 | 32040 ft | 469 kts | 326° |
| 2026-05-04 00:23 | 19.05208 | -70.08457 | 32040 ft | 469 kts | 326° |
| 2026-05-04 00:24 | 19.10715 | -70.12198 | 32056 ft | 469 kts | 326° |
| 2026-05-04 00:24 | 19.15995 | -70.15797 | 32054 ft | 471 kts | 326° |
| 2026-05-04 00:25 | 19.21460 | -70.19603 | 32061 ft | 468 kts | 326° |
| 2026-05-04 00:25 | 19.26889 | -70.23417 | 32055 ft | 468 kts | 325° |
| 2026-05-04 00:26 | 19.32320 | -70.27235 | 32056 ft | 469 kts | 326° |
| 2026-05-04 00:26 | 19.37758 | -70.31029 | 32074 ft | 468 kts | 326° |
| 2026-05-04 00:27 | 19.43307 | -70.34811 | 32085 ft | 469 kts | 326° |
| 2026-05-04 00:27 | 19.48950 | -70.38630 | 32099 ft | 468 kts | 327° |
| 2026-05-04 00:28 | 19.54602 | -70.42461 | 32101 ft | 468 kts | 326° |
| 2026-05-04 00:28 | 19.60150 | -70.46232 | 32084 ft | 468 kts | 326° |
| 2026-05-04 00:29 | 19.65649 | -70.49978 | 32068 ft | 468 kts | 326° |
| 2026-05-04 00:29 | 19.71141 | -70.53721 | 32038 ft | 467 kts | 327° |
| 2026-05-04 00:30 | 19.76753 | -70.57165 | 32029 ft | 469 kts | 334° |
| 2026-05-04 00:30 | 19.82837 | -70.59679 | 32025 ft | 471 kts | 340° |
| 2026-05-04 00:31 | 19.89118 | -70.61770 | 32026 ft | 471 kts | 342° |
| 2026-05-04 00:31 | 19.95400 | -70.63794 | 32011 ft | 471 kts | 342° |
| 2026-05-04 00:32 | 20.01682 | -70.65855 | 32010 ft | 471 kts | 341° |
| 2026-05-04 00:32 | 20.07918 | -70.67941 | 32009 ft | 470 kts | 341° |
| 2026-05-04 00:33 | 20.17293 | -70.71126 | 32013 ft | 471 kts | 340° |
| 2026-05-04 00:34 | 20.23550 | -70.73264 | 32015 ft | 471 kts | 341° |
| 2026-05-04 00:34 | 20.29807 | -70.75407 | 32013 ft | 472 kts | 340° |
| 2026-05-04 00:35 | 20.36054 | -70.77549 | 32012 ft | 471 kts | 340° |
| 2026-05-04 00:35 | 20.42272 | -70.79682 | 32014 ft | 472 kts | 340° |
| 2026-05-04 00:36 | 20.48573 | -70.81827 | 32013 ft | 472 kts | 341° |
| 2026-05-04 00:36 | 20.54806 | -70.83937 | 32017 ft | 472 kts | 341° |
| 2026-05-04 00:37 | 20.61079 | -70.86060 | 32020 ft | 472 kts | 340° |
| 2026-05-04 00:37 | 20.67365 | -70.88193 | 32020 ft | 473 kts | 341° |
| 2026-05-04 00:38 | 20.73638 | -70.90324 | 32022 ft | 473 kts | 340° |
| 2026-05-04 00:38 | 20.79904 | -70.92454 | 32023 ft | 473 kts | 340° |
| 2026-05-04 00:39 | 20.86195 | -70.94597 | 32026 ft | 473 kts | 340° |
| 2026-05-04 00:39 | 20.92437 | -70.96725 | 32027 ft | 473 kts | 340° |
| 2026-05-04 00:40 | 20.98766 | -70.98850 | 32028 ft | 474 kts | 341° |
| 2026-05-04 00:40 | 21.05099 | -71.00888 | 32029 ft | 476 kts | 341° |
| 2026-05-04 00:41 | 21.11452 | -71.02911 | 32028 ft | 475 kts | 341° |
| 2026-05-04 00:41 | 21.17779 | -71.04934 | 32029 ft | 474 kts | 341° |
| 2026-05-04 00:42 | 21.24132 | -71.06975 | 32028 ft | 474 kts | 341° |
| 2026-05-04 00:42 | 21.30433 | -71.09006 | 32031 ft | 474 kts | 341° |
| 2026-05-04 00:43 | 21.36759 | -71.11049 | 32032 ft | 474 kts | 341° |
| 2026-05-04 00:43 | 21.43081 | -71.13094 | 32029 ft | 475 kts | 341° |
| 2026-05-04 00:44 | 21.49414 | -71.15157 | 32030 ft | 475 kts | 340° |
| 2026-05-04 00:44 | 21.55749 | -71.17246 | 32032 ft | 475 kts | 340° |
| 2026-05-04 00:45 | 21.62082 | -71.19340 | 32029 ft | 475 kts | 340° |
| 2026-05-04 00:45 | 21.68393 | -71.21428 | 32031 ft | 475 kts | 340° |
| 2026-05-04 00:46 | 21.74723 | -71.23522 | 32030 ft | 475 kts | 340° |
| 2026-05-04 00:46 | 21.81027 | -71.25608 | 32031 ft | 476 kts | 340° |
| 2026-05-04 00:47 | 21.87383 | -71.27712 | 32034 ft | 475 kts | 340° |
| 2026-05-04 00:47 | 21.93698 | -71.29803 | 32039 ft | 476 kts | 340° |
| 2026-05-04 00:48 | 22.00054 | -71.31912 | 32044 ft | 477 kts | 340° |
| 2026-05-04 00:48 | 22.06396 | -71.34017 | 32046 ft | 476 kts | 340° |
| 2026-05-04 00:49 | 22.12742 | -71.36124 | 32045 ft | 477 kts | 340° |
| 2026-05-04 00:49 | 22.19090 | -71.38200 | 32043 ft | 476 kts | 340° |
| 2026-05-04 00:50 | 22.25429 | -71.40256 | 32046 ft | 475 kts | 340° |
| 2026-05-04 00:50 | 22.31780 | -71.42318 | 32045 ft | 476 kts | 340° |
| 2026-05-04 00:51 | 22.38119 | -71.44381 | 32045 ft | 476 kts | 340° |
| 2026-05-04 00:51 | 22.44465 | -71.46451 | 32045 ft | 476 kts | 340° |
| 2026-05-04 00:52 | 22.50805 | -71.48522 | 32045 ft | 477 kts | 340° |
| 2026-05-04 00:52 | 22.57180 | -71.50607 | 32045 ft | 476 kts | 340° |
| 2026-05-04 00:53 | 22.63507 | -71.52678 | 32045 ft | 476 kts | 340° |
| 2026-05-04 00:53 | 22.69859 | -71.54758 | 32046 ft | 475 kts | 340° |
| 2026-05-04 00:54 | 22.76158 | -71.56825 | 32048 ft | 475 kts | 340° |
| 2026-05-04 00:54 | 22.82515 | -71.58922 | 32047 ft | 475 kts | 339° |
| 2026-05-04 00:55 | 22.88832 | -71.61084 | 32051 ft | 475 kts | 339° |
| 2026-05-04 00:55 | 22.95127 | -71.63277 | 32048 ft | 475 kts | 339° |
| 2026-05-04 00:56 | 23.01428 | -71.65474 | 32049 ft | 475 kts | 338° |
| 2026-05-04 00:56 | 23.07687 | -71.67651 | 32051 ft | 475 kts | 338° |
| 2026-05-04 00:57 | 23.13985 | -71.69838 | 32052 ft | 476 kts | 338° |
| 2026-05-04 00:57 | 23.20322 | -71.72038 | 32050 ft | 474 kts | 338° |
| 2026-05-04 00:58 | 23.26602 | -71.74219 | 32049 ft | 476 kts | 338° |
| 2026-05-04 00:58 | 23.32929 | -71.76402 | 32051 ft | 474 kts | 339° |
| 2026-05-04 00:59 | 23.39358 | -71.78069 | 32050 ft | 480 kts | 346° |
| 2026-05-04 00:59 | 23.46036 | -71.79048 | 32051 ft | 482 kts | 349° |
| 2026-05-04 01:00 | 23.52681 | -71.79812 | 32050 ft | 483 kts | 350° |
| 2026-05-04 01:00 | 23.59382 | -71.80570 | 32051 ft | 482 kts | 349° |
| 2026-05-04 01:01 | 23.66069 | -71.81380 | 32050 ft | 483 kts | 348° |
| 2026-05-04 01:01 | 23.72750 | -71.82261 | 32053 ft | 482 kts | 348° |
| 2026-05-04 01:02 | 23.79373 | -71.83160 | 32053 ft | 481 kts | 348° |
| 2026-05-04 01:02 | 23.86046 | -71.84072 | 32054 ft | 483 kts | 348° |
| 2026-05-04 01:03 | 23.92715 | -71.84982 | 32054 ft | 482 kts | 348° |
| 2026-05-04 01:03 | 23.99378 | -71.85889 | 32053 ft | 482 kts | 348° |
| 2026-05-04 01:04 | 24.06039 | -71.86796 | 32053 ft | 482 kts | 348° |
| 2026-05-04 01:04 | 24.12700 | -71.87702 | 32054 ft | 483 kts | 348° |
| 2026-05-04 01:05 | 24.19394 | -71.88599 | 32052 ft | 484 kts | 348° |
| 2026-05-04 01:05 | 24.26043 | -71.89483 | 32052 ft | 484 kts | 348° |
| 2026-05-04 01:06 | 24.32740 | -71.90373 | 32052 ft | 484 kts | 348° |
| 2026-05-04 01:06 | 24.39441 | -71.91267 | 32053 ft | 485 kts | 348° |
| 2026-05-04 01:07 | 24.46098 | -71.92155 | 32052 ft | 484 kts | 348° |
| 2026-05-04 01:07 | 24.52809 | -71.93054 | 32050 ft | 484 kts | 348° |
| 2026-05-04 01:08 | 24.59516 | -71.93953 | 32050 ft | 485 kts | 348° |
| 2026-05-04 01:08 | 24.66216 | -71.94852 | 32050 ft | 486 kts | 347° |
| 2026-05-04 01:09 | 24.72904 | -71.95750 | 32049 ft | 485 kts | 347° |
| 2026-05-04 01:09 | 24.79597 | -71.96650 | 32051 ft | 486 kts | 347° |
| 2026-05-04 01:10 | 24.86310 | -71.97554 | 32051 ft | 486 kts | 347° |
| 2026-05-04 01:10 | 24.93041 | -71.98462 | 32051 ft | 486 kts | 347° |
| 2026-05-04 01:11 | 24.99632 | -71.99846 | 32048 ft | 477 kts | 337° |
| 2026-05-04 01:11 | 25.05643 | -72.02742 | 32051 ft | 468 kts | 326° |
| 2026-05-04 01:12 | 25.11298 | -72.06283 | 32049 ft | 465 kts | 323° |
| 2026-05-04 01:12 | 25.16855 | -72.09936 | 32053 ft | 466 kts | 323° |
| 2026-05-04 01:13 | 25.22446 | -72.13595 | 32052 ft | 466 kts | 323° |
| 2026-05-04 01:13 | 25.28043 | -72.17216 | 32054 ft | 467 kts | 323° |
| 2026-05-04 01:14 | 25.33671 | -72.20830 | 32055 ft | 466 kts | 323° |
| 2026-05-04 01:14 | 25.39281 | -72.24423 | 32056 ft | 466 kts | 323° |
| 2026-05-04 01:15 | 25.44879 | -72.28008 | 32058 ft | 466 kts | 323° |
| 2026-05-04 01:15 | 25.50499 | -72.31612 | 32054 ft | 466 kts | 323° |
| 2026-05-04 01:16 | 25.56108 | -72.35211 | 32054 ft | 465 kts | 323° |
| 2026-05-04 01:16 | 25.61730 | -72.38825 | 32049 ft | 467 kts | 323° |
| 2026-05-04 01:17 | 25.67343 | -72.42436 | 32049 ft | 466 kts | 323° |
| 2026-05-04 01:17 | 25.72931 | -72.46035 | 32054 ft | 467 kts | 323° |
| 2026-05-04 01:18 | 25.78562 | -72.49666 | 32049 ft | 467 kts | 323° |
| 2026-05-04 01:18 | 25.84176 | -72.53289 | 32049 ft | 467 kts | 323° |
| 2026-05-04 01:19 | 25.89809 | -72.56929 | 32051 ft | 468 kts | 323° |
| 2026-05-04 01:19 | 25.95405 | -72.60548 | 32045 ft | 466 kts | 323° |
| 2026-05-04 01:20 | 26.00996 | -72.64168 | 32048 ft | 467 kts | 323° |
| 2026-05-04 01:20 | 26.06613 | -72.67811 | 32045 ft | 465 kts | 323° |
| 2026-05-04 01:21 | 26.12208 | -72.71442 | 32043 ft | 465 kts | 323° |
| 2026-05-04 01:21 | 26.17798 | -72.75076 | 32042 ft | 466 kts | 323° |
| 2026-05-04 01:22 | 26.23369 | -72.78700 | 32039 ft | 464 kts | 322° |
| 2026-05-04 01:22 | 26.28966 | -72.82346 | 32038 ft | 467 kts | 322° |
| 2026-05-04 01:23 | 26.34544 | -72.85981 | 32034 ft | 465 kts | 322° |
| 2026-05-04 01:23 | 26.40096 | -72.89604 | 32030 ft | 465 kts | 322° |
| 2026-05-04 01:24 | 26.45704 | -72.93271 | 32034 ft | 464 kts | 322° |
| 2026-05-04 01:24 | 26.51292 | -72.96927 | 32033 ft | 465 kts | 322° |
| 2026-05-04 01:25 | 26.56848 | -73.00564 | 32032 ft | 464 kts | 322° |
| 2026-05-04 01:25 | 26.62434 | -73.04227 | 32031 ft | 467 kts | 322° |
| 2026-05-04 01:26 | 26.68022 | -73.07896 | 32032 ft | 468 kts | 322° |
| 2026-05-04 01:26 | 26.73642 | -73.11590 | 32031 ft | 469 kts | 322° |
| 2026-05-04 01:27 | 26.79255 | -73.15282 | 32036 ft | 469 kts | 322° |
| 2026-05-04 01:27 | 26.84856 | -73.18971 | 32041 ft | 467 kts | 322° |
| 2026-05-04 01:28 | 26.90433 | -73.22649 | 32046 ft | 468 kts | 322° |
| 2026-05-04 01:28 | 26.96051 | -73.26356 | 32047 ft | 465 kts | 322° |
| 2026-05-04 01:29 | 27.01615 | -73.30032 | 32049 ft | 467 kts | 322° |
| 2026-05-04 01:29 | 27.07240 | -73.33758 | 32049 ft | 467 kts | 322° |
| 2026-05-04 01:30 | 27.12833 | -73.37463 | 32054 ft | 465 kts | 322° |
| 2026-05-04 01:30 | 27.18419 | -73.41168 | 32055 ft | 468 kts | 322° |
| 2026-05-04 01:31 | 27.24029 | -73.44894 | 32055 ft | 467 kts | 322° |
| 2026-05-04 01:31 | 27.29632 | -73.48619 | 32057 ft | 468 kts | 321° |
| 2026-05-04 01:32 | 27.35222 | -73.52336 | 32057 ft | 470 kts | 322° |
| 2026-05-04 01:32 | 27.40821 | -73.56063 | 32060 ft | 467 kts | 321° |
| 2026-05-04 01:33 | 27.46443 | -73.59817 | 32059 ft | 468 kts | 321° |
| 2026-05-04 01:33 | 27.52065 | -73.63572 | 32063 ft | 467 kts | 321° |
| 2026-05-04 01:34 | 27.57611 | -73.67278 | 32065 ft | 466 kts | 321° |
| 2026-05-04 01:34 | 27.63196 | -73.71023 | 32062 ft | 468 kts | 321° |
| 2026-05-04 01:35 | 27.68810 | -73.74790 | 32065 ft | 468 kts | 321° |
| 2026-05-04 01:35 | 27.74396 | -73.78538 | 32066 ft | 468 kts | 321° |
| 2026-05-04 01:36 | 27.79974 | -73.82284 | 32067 ft | 468 kts | 321° |
| 2026-05-04 01:36 | 27.85619 | -73.86087 | 32066 ft | 469 kts | 321° |
| 2026-05-04 01:37 | 27.91201 | -73.89845 | 32069 ft | 472 kts | 320° |
| 2026-05-04 01:37 | 27.96850 | -73.93655 | 32072 ft | 471 kts | 320° |
| 2026-05-04 01:38 | 28.02454 | -73.97440 | 32071 ft | 470 kts | 320° |
| 2026-05-04 01:38 | 28.08052 | -74.01224 | 32069 ft | 471 kts | 320° |
| 2026-05-04 01:39 | 28.13695 | -74.05043 | 32073 ft | 470 kts | 320° |
| 2026-05-04 01:39 | 28.19303 | -74.08846 | 32077 ft | 470 kts | 320° |
| 2026-05-04 01:40 | 28.24865 | -74.12679 | 32082 ft | 467 kts | 317° |
| 2026-05-04 01:40 | 28.30117 | -74.17035 | 32083 ft | 464 kts | 313° |
| 2026-05-04 01:41 | 28.35078 | -74.21536 | 32083 ft | 459 kts | 312° |
| 2026-05-04 01:41 | 28.40082 | -74.26120 | 32088 ft | 459 kts | 313° |
| 2026-05-04 01:42 | 28.45045 | -74.30613 | 32092 ft | 462 kts | 312° |
| 2026-05-04 01:42 | 28.50100 | -74.35162 | 32090 ft | 462 kts | 313° |
| 2026-05-04 01:43 | 28.55081 | -74.39625 | 32090 ft | 460 kts | 313° |
| 2026-05-04 01:43 | 28.60137 | -74.44157 | 32095 ft | 461 kts | 313° |
| 2026-05-04 01:44 | 28.65189 | -74.48681 | 32093 ft | 461 kts | 313° |
| 2026-05-04 01:44 | 28.70212 | -74.53183 | 32095 ft | 462 kts | 313° |
| 2026-05-04 01:45 | 28.75262 | -74.57719 | 32102 ft | 461 kts | 312° |
| 2026-05-04 01:45 | 28.82821 | -74.64527 | 32104 ft | 459 kts | 312° |
| 2026-05-04 01:46 | 28.87806 | -74.69021 | 32108 ft | 456 kts | 311° |
| 2026-05-04 01:46 | 28.92827 | -74.73555 | 32106 ft | 458 kts | 311° |
| 2026-05-04 01:47 | 28.97789 | -74.78040 | 32107 ft | 456 kts | 311° |
| 2026-05-04 01:47 | 29.02782 | -74.82560 | 32109 ft | 457 kts | 311° |
| 2026-05-04 01:48 | 29.07796 | -74.87103 | 32109 ft | 458 kts | 311° |
| 2026-05-04 01:48 | 29.12769 | -74.91621 | 32113 ft | 460 kts | 311° |
| 2026-05-04 01:49 | 29.17772 | -74.96161 | 32111 ft | 458 kts | 311° |
| 2026-05-04 01:49 | 29.22729 | -75.00665 | 32108 ft | 455 kts | 311° |
| 2026-05-04 01:50 | 29.27683 | -75.05183 | 32114 ft | 458 kts | 311° |
| 2026-05-04 01:50 | 29.32678 | -75.09744 | 32117 ft | 456 kts | 311° |
| 2026-05-04 01:51 | 29.37618 | -75.14253 | 32118 ft | 457 kts | 310° |
| 2026-05-04 01:51 | 29.42565 | -75.18776 | 32116 ft | 456 kts | 311° |
| 2026-05-04 01:52 | 29.47534 | -75.23323 | 32119 ft | 457 kts | 310° |
| 2026-05-04 01:52 | 29.52452 | -75.27834 | 32116 ft | 454 kts | 310° |
| 2026-05-04 01:53 | 29.57383 | -75.32365 | 32118 ft | 457 kts | 310° |
| 2026-05-04 01:53 | 29.62336 | -75.36915 | 32121 ft | 454 kts | 310° |
| 2026-05-04 01:54 | 29.67275 | -75.41454 | 32123 ft | 454 kts | 310° |
| 2026-05-04 01:54 | 29.72180 | -75.45975 | 32126 ft | 457 kts | 310° |
| 2026-05-04 01:55 | 29.77109 | -75.50521 | 32122 ft | 452 kts | 310° |
| 2026-05-04 01:55 | 29.82006 | -75.55037 | 32127 ft | 451 kts | 310° |
| 2026-05-04 01:56 | 29.86925 | -75.59595 | 32129 ft | 451 kts | 310° |
| 2026-05-04 01:56 | 29.91822 | -75.64127 | 32127 ft | 453 kts | 309° |
| 2026-05-04 01:57 | 29.96723 | -75.68674 | 32127 ft | 450 kts | 309° |
| 2026-05-04 01:57 | 30.01600 | -75.73203 | 32128 ft | 453 kts | 309° |
| 2026-05-04 01:58 | 30.06465 | -75.77724 | 32130 ft | 452 kts | 309° |
| 2026-05-04 01:58 | 30.11350 | -75.82272 | 32142 ft | 449 kts | 309° |
| 2026-05-04 01:59 | 30.16231 | -75.86823 | 32131 ft | 449 kts | 309° |
| 2026-05-04 01:59 | 30.21076 | -75.91344 | 32131 ft | 451 kts | 309° |
| 2026-05-04 02:00 | 30.25956 | -75.95908 | 32139 ft | 447 kts | 309° |
| 2026-05-04 02:00 | 30.30774 | -76.00414 | 32149 ft | 449 kts | 309° |
| 2026-05-04 02:01 | 30.35602 | -76.04938 | 32135 ft | 448 kts | 309° |
| 2026-05-04 02:01 | 30.40446 | -76.09485 | 32125 ft | 450 kts | 309° |
| 2026-05-04 02:02 | 30.45333 | -76.14078 | 32137 ft | 447 kts | 309° |
| 2026-05-04 02:02 | 30.50156 | -76.18614 | 32140 ft | 450 kts | 309° |
| 2026-05-04 02:03 | 30.54972 | -76.23143 | 32133 ft | 448 kts | 309° |
| 2026-05-04 02:03 | 30.59803 | -76.27706 | 32134 ft | 448 kts | 309° |
| 2026-05-04 02:04 | 30.64644 | -76.32279 | 32145 ft | 447 kts | 309° |
| 2026-05-04 02:04 | 30.69465 | -76.36842 | 32133 ft | 449 kts | 309° |
| 2026-05-04 02:05 | 30.74283 | -76.41403 | 32146 ft | 449 kts | 309° |
| 2026-05-04 02:05 | 30.79095 | -76.45962 | 32140 ft | 444 kts | 310° |
| 2026-05-04 02:06 | 30.83893 | -76.50515 | 32129 ft | 446 kts | 309° |
| 2026-05-04 02:06 | 30.88698 | -76.55089 | 32127 ft | 448 kts | 309° |
| 2026-05-04 02:07 | 30.93526 | -76.59680 | 32145 ft | 444 kts | 310° |
| 2026-05-04 02:07 | 30.98337 | -76.64269 | 32140 ft | 445 kts | 310° |
| 2026-05-04 02:08 | 31.03130 | -76.68845 | 32136 ft | 447 kts | 310° |
| 2026-05-04 02:08 | 31.07938 | -76.73444 | 32129 ft | 449 kts | 309° |
| 2026-05-04 02:09 | 31.12740 | -76.78034 | 32132 ft | 445 kts | 309° |
| 2026-05-04 02:09 | 31.17551 | -76.82648 | 32139 ft | 447 kts | 309° |
| 2026-05-04 02:10 | 31.22328 | -76.87233 | 32135 ft | 446 kts | 310° |
| 2026-05-04 02:10 | 31.27143 | -76.91861 | 32133 ft | 444 kts | 310° |
| 2026-05-04 02:11 | 31.31915 | -76.96452 | 32138 ft | 448 kts | 310° |
| 2026-05-04 02:11 | 31.36708 | -77.01083 | 32142 ft | 445 kts | 309° |
| 2026-05-04 02:12 | 31.41131 | -77.05611 | 32139 ft | 444 kts | 308° |
| 2026-05-04 02:12 | 31.45587 | -77.10322 | 32148 ft | 443 kts | 307° |
| 2026-05-04 02:13 | 31.50170 | -77.15179 | 32142 ft | 443 kts | 308° |
| 2026-05-04 02:13 | 31.54748 | -77.20013 | 32142 ft | 447 kts | 308° |
| 2026-05-04 02:14 | 31.59333 | -77.24833 | 32145 ft | 442 kts | 308° |
| 2026-05-04 02:14 | 31.63915 | -77.29655 | 32148 ft | 446 kts | 308° |
| 2026-05-04 02:15 | 31.68509 | -77.34492 | 32151 ft | 443 kts | 308° |
| 2026-05-04 02:15 | 31.73105 | -77.39329 | 32147 ft | 443 kts | 308° |
| 2026-05-04 02:16 | 31.77692 | -77.44177 | 32157 ft | 448 kts | 308° |
| 2026-05-04 02:16 | 31.82293 | -77.49040 | 32152 ft | 445 kts | 308° |
| 2026-05-04 02:17 | 31.86904 | -77.53915 | 32148 ft | 442 kts | 309° |
| 2026-05-04 02:17 | 31.91470 | -77.58757 | 32150 ft | 446 kts | 308° |
| 2026-05-04 02:18 | 31.96073 | -77.63641 | 32160 ft | 446 kts | 308° |
| 2026-05-04 02:18 | 32.00652 | -77.68509 | 32154 ft | 442 kts | 308° |
| 2026-05-04 02:19 | 32.05244 | -77.73395 | 32156 ft | 442 kts | 308° |
| 2026-05-04 02:19 | 32.09820 | -77.78277 | 32155 ft | 445 kts | 308° |
| 2026-05-04 02:20 | 32.14465 | -77.83155 | 32156 ft | 448 kts | 311° |
| 2026-05-04 02:20 | 32.16973 | -77.85360 | 32152 ft | 459 kts | 318° |
| 2026-05-04 02:20 | 32.19872 | -77.87064 | 32150 ft | 477 kts | 329° |
| 2026-05-04 02:21 | 32.23114 | -77.88133 | 32159 ft | 491 kts | 340° |
| 2026-05-04 02:21 | 32.26507 | -77.88665 | 32154 ft | 494 kts | 345° |
| 2026-05-04 02:21 | 32.33396 | -77.89208 | 32161 ft | 498 kts | 348° |
| 2026-05-04 02:22 | 32.40351 | -77.89535 | 32153 ft | 500 kts | 349° |
| 2026-05-04 02:22 | 32.47284 | -77.89851 | 32154 ft | 498 kts | 349° |
| 2026-05-04 02:23 | 32.54240 | -77.90205 | 32159 ft | 500 kts | 349° |
| 2026-05-04 02:23 | 32.61174 | -77.90591 | 32153 ft | 498 kts | 348° |
| 2026-05-04 02:24 | 32.68089 | -77.90990 | 32151 ft | 498 kts | 348° |
| 2026-05-04 02:24 | 32.75027 | -77.91402 | 32157 ft | 501 kts | 348° |
| 2026-05-04 02:25 | 32.81948 | -77.91813 | 32156 ft | 498 kts | 348° |
| 2026-05-04 02:25 | 32.88898 | -77.92226 | 32152 ft | 501 kts | 348° |
| 2026-05-04 02:26 | 32.95819 | -77.92635 | 32155 ft | 498 kts | 348° |
| 2026-05-04 02:26 | 33.02762 | -77.93049 | 32153 ft | 499 kts | 348° |
| 2026-05-04 02:27 | 33.09697 | -77.93462 | 32152 ft | 498 kts | 348° |
| 2026-05-04 02:27 | 33.16587 | -77.93872 | 32151 ft | 498 kts | 348° |
| 2026-05-04 02:28 | 33.23526 | -77.94289 | 32148 ft | 498 kts | 348° |